Latest Weather Observations for Tuggeranong

IDN60901

Issued at 4:15 pm EST Tuesday 23 September 2014 (issued every 10 minutes, with the page automatically refreshed every 10 minutes)

About weather observations | Map of Canberra area stations | Latest observations for Canberra area | Other Formats
Station Details ID: 070339 Name: TUGGERANONG (ISABELLA PLAINS) AWS Lat: -35.42 Lon: 149.09 Height: 586.7 m
Data from the previous 72 hours. | See also: Recent months at Tuggeranong
Date/Time
EST
Tmp

°C
App
Tmp
°C
Dew
Point
°C
Rel
Hum
%
Delta-T

°C
Wind Press
QNH
hPa
Press
MSL
hPa
Rain
since
9 am
mm
Dir
 
Spd
km/h
Gust
km/h
Spd
kts
Gust
kts
23/04:00pm 21.1 17.9 3.3 31 8.7 NW 9 20 5 11 1024.5 1024.5 0.0
23/03:30pm 21.6 18.3 4.7 33 8.5 N 11 20 6 11 1024.8 1024.7 0.0
23/03:00pm 21.8 19.1 3.5 30 9.0 WSW 7 11 4 6 1024.9 1024.8 0.0
23/02:30pm 21.9 18.1 1.5 26 9.7 WSW 11 19 6 10 1025.0 1024.9 0.0
23/02:00pm 21.6 18.3 2.3 28 9.3 WNW 9 17 5 9 1025.1 1025.0 0.0
23/01:30pm 21.3 18.2 3.5 31 8.7 E 9 20 5 11 1025.5 1025.4 0.0
23/01:00pm 20.9 17.4 3.6 32 8.5 N 11 17 6 9 1026.0 1026.0 0.0
23/12:30pm 20.3 17.4 4.8 36 7.8 NNE 9 17 5 9 1026.6 1026.5 0.0
23/12:00pm 20.4 17.5 4.8 36 7.8 NNE 9 15 5 8 1027.1 1027.1 0.0
23/11:30am 19.7 17.2 6.4 42 6.8 NE 9 17 5 9 1027.7 1027.7 0.0
23/11:00am 18.9 16.5 5.4 41 6.7 NW 7 13 4 7 1027.9 1027.9 0.0
23/10:30am 17.6 15.9 7.4 51 5.3 WSW 6 11 3 6 1028.6 1028.6 0.0
23/10:00am 16.1 14.1 7.1 55 4.6 W 7 11 4 6 1029.1 1029.1 0.0
23/09:30am 14.2 13.7 7.7 65 3.3 CALM 0 6 0 3 1029.5 1029.5 0.0
23/09:00am 12.1 10.4 7.4 73 2.3 WSW 6 9 3 5 1029.7 1029.7 0.0
23/08:30am 10.7 10.1 7.2 79 1.7 CALM 0 6 0 3 1029.9 1029.9 0.0
23/08:00am 8.8 7.9 5.9 82 1.4 CALM 0 0 0 0 1030.2 1030.2 0.0
23/07:30am 6.8 5.7 5.0 88 0.8 CALM 0 0 0 0 1030.3 1030.3 0.0
23/07:00am 5.0 3.8 4.6 97 0.2 CALM 0 0 0 0 1030.3 1030.3 0.0
23/06:30am 3.2 1.7 3.1 99 0.0 NW 0 7 0 4 1029.9 1029.9 0.0
23/06:00am 2.1 0.4 1.7 97 0.2 CALM 0 0 0 0 1029.7 1029.7 0.0
23/05:30am 2.0 0.2 1.4 96 0.2 E 0 0 0 0 1029.6 1029.6 0.0
23/05:00am 2.8 1.2 2.4 97 0.2 CALM 0 0 0 0 1029.5 1029.5 0.0
23/04:30am 3.1 1.5 2.7 97 0.2 CALM 0 0 0 0 1029.5 1029.5 0.0
23/04:00am 3.4 1.9 3.0 97 0.2 CALM 0 0 0 0 1029.4 1029.4 0.0
23/03:30am 3.5 2.0 3.1 97 0.2 CALM 0 0 0 0 1029.3 1029.3 0.0
23/03:00am 4.1 2.7 3.4 95 0.3 CALM 0 2 0 1 1029.1 1029.1 0.0
23/02:30am 4.4 3.1 4.0 97 0.2 CALM 0 0 0 0 1029.3 1029.3 0.0
23/02:00am 4.5 3.1 3.8 95 0.3 CALM 0 0 0 0 1029.3 1029.3 0.0
23/01:30am 5.0 3.6 3.8 92 0.5 CALM 0 0 0 0 1029.6 1029.6 0.0
23/01:00am 5.9 4.8 5.2 95 0.3 CALM 0 0 0 0 1029.7 1029.7 0.0
23/12:30am 5.9 4.8 4.9 93 0.5 CALM 0 0 0 0 1029.9 1029.9 0.0
23/12:00am 6.4 5.2 4.6 88 0.8 NE 0 0 0 0 1029.9 1029.9 0.0
 
Date/Time
EST
Tmp

°C
App
Tmp
°C
Dew
Point
°C
Rel
Hum
%
Delta-T

°C
Wind Press
QNH
hPa
Press
MSL
hPa
Rain
since
9 am
mm
Dir
 
Spd
km/h
Gust
km/h
Spd
kts
Gust
kts
22/11:30pm 7.3 6.3 5.4 88 0.9 CALM 0 0 0 0 1030.0 1030.1 0.0
22/11:00pm 7.7 6.7 5.7 87 0.9 CALM 0 6 0 3 1030.0 1030.1 0.0
22/10:30pm 7.6 6.4 4.7 82 1.3 CALM 0 0 0 0 1029.9 1029.9 0.0
22/10:00pm 8.7 7.1 4.7 76 1.8 SE 2 6 1 3 1029.8 1029.8 0.0
22/09:30pm 10.4 8.3 5.6 72 2.3 SSE 6 9 3 5 1029.8 1029.8 0.0
22/09:00pm 10.9 8.2 5.4 69 2.6 E 9 13 5 7 1029.6 1029.6 0.0
22/08:30pm 10.9 8.2 5.4 69 2.6 ESE 9 11 5 6 1029.6 1029.6 0.0
22/08:00pm 11.3 9.2 5.8 69 2.6 ENE 6 7 3 4 1029.3 1029.3 0.0
22/07:30pm 12.4 11.5 6.0 65 3.1 CALM 0 0 0 0 1029.0 1029.0 0.0
22/07:00pm 12.6 11.4 4.8 59 3.7 CALM 0 0 0 0 1028.7 1028.7 0.0
22/06:30pm 15.1 12.9 5.3 52 4.8 W 6 7 3 4 1028.4 1028.3 0.0
22/06:00pm 16.2 13.8 5.2 48 5.4 WNW 7 11 4 6 1027.9 1027.9 0.0
22/05:30pm 17.6 14.8 5.2 44 6.2 NW 9 15 5 8 1027.7 1027.7 0.0
22/05:00pm 18.3 15.0 4.8 41 6.6 NW 11 17 6 9 1027.6 1027.6 0.0
22/04:30pm 18.8 15.6 4.9 40 6.9 NNW 11 20 6 11 1027.4 1027.4 0.0
22/04:00pm 19.1 15.5 5.2 40 6.9 WNW 13 20 7 11 1027.3 1027.3 0.0
22/03:30pm 19.4 15.9 5.5 40 7.0 WNW 13 17 7 9 1027.3 1027.3 0.0
22/03:00pm 19.4 16.3 5.5 40 7.0 NNW 11 22 6 12 1027.5 1027.5 0.0
22/02:30pm 19.6 16.3 6.3 42 6.8 WNW 13 20 7 11 1027.7 1027.7 0.0
22/02:00pm 19.2 16.5 5.6 41 6.8 NNW 9 17 5 9 1027.8 1027.8 0.0
22/01:30pm 19.0 15.2 5.8 42 6.7 N 15 28 8 15 1028.1 1028.1 0.0
22/01:00pm 18.9 16.0 6.4 44 6.4 NW 11 17 6 9 1028.5 1028.4 0.0
22/12:30pm 18.4 15.5 6.6 46 6.1 WNW 11 20 6 11 1029.0 1029.0 0.0
22/12:00pm 18.1 15.7 6.9 48 5.7 WNW 9 17 5 9 1029.6 1029.6 0.0
22/11:30am 17.0 14.7 7.4 53 5.0 NE 9 17 5 9 1030.2 1030.2 0.0
22/11:00am 15.9 13.0 6.6 54 4.7 N 11 19 6 10 1030.7 1030.7 0.0
22/10:30am 15.3 12.8 6.6 56 4.4 NNE 9 15 5 8 1031.1 1031.1 0.0
22/10:00am 14.6 12.6 7.2 61 3.7 WNW 7 13 4 7 1031.4 1031.4 0.0
22/09:30am 12.9 11.2 6.0 63 3.4 SSW 4 9 2 5 1031.5 1031.6 0.0
22/09:00am 11.7 9.4 5.8 67 2.8 WSW 7 11 4 6 1031.7 1031.8 0.0
22/08:30am 11.2 8.9 5.7 69 2.6 W 7 11 4 6 1032.0 1032.0 0.0
22/08:00am 10.3 8.5 5.3 71 2.3 SW 4 9 2 5 1031.8 1031.9 0.0
22/07:30am 9.5 7.2 4.7 72 2.2 WSW 6 7 3 4 1031.8 1031.9 0.0
22/07:00am 8.8 6.4 4.4 74 2.0 W 6 7 3 4 1031.4 1031.4 0.0
22/06:30am 8.5 6.0 4.5 76 1.8 SSW 7 9 4 5 1031.2 1031.2 0.0
22/06:00am 8.3 5.9 4.5 77 1.7 WSW 6 7 3 4 1030.8 1030.8 0.0
22/05:30am 9.3 7.3 6.4 82 1.4 WSW 6 7 3 4 1030.6 1030.6 0.0
22/05:00am 9.6 7.4 6.3 80 1.6 ENE 7 11 4 6 1030.2 1030.2 0.0
22/04:30am 9.6 8.8 6.5 81 1.5 CALM 0 6 0 3 1029.9 1029.9 0.0
22/04:00am 9.7 7.8 6.8 82 1.4 SE 6 7 3 4 1029.8 1029.8 0.0
22/03:30am 9.6 7.7 6.5 81 1.5 ESE 6 9 3 5 1029.8 1029.8 0.0
22/03:00am 9.5 7.0 6.4 81 1.5 E 9 13 5 7 1030.0 1030.1 0.0
22/02:30am 9.4 6.8 6.1 80 1.6 E 9 13 5 7 1030.3 1030.3 0.0
22/02:00am 9.4 6.5 6.3 81 1.5 ENE 11 15 6 8 1030.3 1030.3 0.0
22/01:30am 9.6 6.7 6.5 81 1.5 NE 11 17 6 9 1030.5 1030.5 0.0
22/01:00am 9.9 7.5 7.0 82 1.4 NE 9 13 5 7 1030.8 1030.8 0.0
22/12:30am 10.0 8.0 6.9 81 1.5 NE 7 11 4 6 1030.8 1030.8 0.0
22/12:00am 10.1 7.7 6.8 80 1.6 NE 9 13 5 7 1031.0 1031.0 0.0
 
Date/Time
EST
Tmp

°C
App
Tmp
°C
Dew
Point
°C
Rel
Hum
%
Delta-T

°C
Wind Press
QNH
hPa
Press
MSL
hPa
Rain
since
9 am
mm
Dir
 
Spd
km/h
Gust
km/h
Spd
kts
Gust
kts
21/11:30pm 10.2 7.4 7.1 81 1.5 NE 11 15 6 8 1031.1 1031.1 0.0
21/11:00pm 10.4 7.7 7.3 81 1.5 NE 11 15 6 8 1030.9 1030.9 0.0
21/10:30pm 10.5 8.6 7.4 81 1.5 NNE 7 11 4 6 1030.9 1030.9 0.0
21/10:00pm 10.3 8.4 6.8 79 1.7 NE 6 13 3 7 1030.6 1030.6 0.0
21/09:30pm 11.0 8.2 6.9 76 2.0 NE 11 19 6 10 1030.0 1030.1 0.0
21/09:00pm 11.1 9.2 6.6 74 2.2 NE 6 9 3 5 1029.6 1029.6 0.0
21/08:30pm 12.2 10.2 7.1 71 2.5 ENE 7 11 4 6 1029.3 1029.3 0.0
21/08:00pm 12.7 10.3 7.2 69 2.7 ESE 9 13 5 7 1028.9 1028.9 0.0
21/07:30pm 13.6 11.3 7.4 66 3.1 E 9 15 5 8 1028.6 1028.6 0.0
21/07:00pm 14.1 13.3 6.7 61 3.7 CALM 0 0 0 0 1028.0 1028.0 0.0
21/06:30pm 15.0 12.9 6.6 57 4.2 NW 7 11 4 6 1027.6 1027.6 0.0
21/06:00pm 15.4 13.3 6.7 56 4.4 WSW 7 11 4 6 1027.1 1027.1 0.0
21/05:30pm 16.1 13.6 6.5 53 4.8 W 9 15 5 8 1026.9 1026.8 0.0
21/05:00pm 16.7 13.7 6.2 50 5.3 NW 11 15 6 8 1026.7 1026.6 0.0
21/04:30pm 17.4 14.9 6.6 49 5.5 W 9 13 5 7 1026.6 1026.5 0.0
21/04:00pm 17.6 15.5 6.5 48 5.6 NNW 7 17 4 9 1026.6 1026.5 0.0
21/03:30pm 17.6 15.5 6.5 48 5.7 NE 7 15 4 8 1026.7 1026.6 0.0
21/03:00pm 17.7 15.0 7.2 50 5.4 WNW 11 17 6 9 1026.7 1026.6 0.0
21/02:30pm 17.5 14.2 6.4 48 5.6 WSW 13 20 7 11 1026.9 1026.8 0.0
21/02:00pm 17.1 14.6 6.6 50 5.3 WNW 9 15 5 8 1027.2 1027.2 0.0
21/01:30pm 16.8 13.6 6.9 52 5.1 SW 13 19 7 10 1027.6 1027.6 0.0
21/01:00pm 16.6 14.6 6.4 51 5.1 NE 6 15 3 8 1028.1 1028.1 0.0
21/12:30pm 15.9 13.5 5.2 49 5.3 E 7 17 4 9 1028.5 1028.4 0.0
21/12:00pm 14.1 11.2 4.4 52 4.6 SW 9 13 5 7 1029.2 1029.2 0.0
21/11:30am 13.7 11.2 4.6 54 4.3 S 7 15 4 8 1029.5 1029.5 0.0
21/11:00am 13.6 11.1 4.5 54 4.3 WSW 7 13 4 7 1029.9 1029.9 0.0
21/10:30am 12.7 9.7 4.2 56 4.0 N 9 13 5 7 1030.4 1030.4 0.0
21/10:00am 12.6 10.1 3.8 55 4.1 NE 6 11 3 6 1030.7 1030.7 0.0
21/09:30am 10.7 8.2 3.7 62 3.2 ESE 6 9 3 5 1030.8 1030.8 0.0
21/09:00am 11.3 8.5 5.0 65 2.9 SW 9 13 5 7 1030.9 1030.9 0.0
21/08:30am 9.6 7.0 4.0 68 2.5 SSW 7 37 4 20 1031.0 1031.0 0.0
21/08:00am 8.2 5.7 4.0 75 1.9 WSW 6 9 3 5 1030.9 1030.9 0.0
21/07:30am 6.7 3.9 3.1 78 1.6 W 7 9 4 5 1030.5 1030.5 0.0
21/07:00am 6.0 3.1 2.6 79 1.4 WSW 7 9 4 5 1029.9 1029.9 0.0
21/06:30am 5.9 3.2 2.9 81 1.3 WSW 6 7 3 4 1029.3 1029.3 0.0
21/06:00am 5.9 4.4 2.9 81 1.3 CALM 0 4 0 2 1028.8 1028.8 0.0
21/05:30am 5.8 3.2 3.0 82 1.2 W 6 6 3 3 1028.4 1028.3 0.0
21/05:00am 6.4 3.9 3.7 83 1.2 SW 6 9 3 5 1027.9 1027.9 0.0
21/04:30am 6.5 5.1 3.5 81 1.3 CALM 0 0 0 0 1027.6 1027.6 0.0
21/04:00am 6.5 5.2 4.0 84 1.1 CALM 0 0 0 0 1027.5 1027.5 0.0
21/03:30am 6.1 4.8 3.9 86 1.0 CALM 0 0 0 0 1027.4 1027.4 0.0
21/03:00am 6.0 4.7 4.2 88 0.8 CALM 0 0 0 0 1027.6 1027.6 0.0
21/02:30am 5.6 4.3 4.2 91 0.6 CALM 0 0 0 0 1027.8 1027.8 0.0
21/02:00am 4.4 2.9 2.9 90 0.6 CALM 0 0 0 0 1028.1 1028.1 0.0
21/01:30am 4.8 3.3 3.1 89 0.7 CALM 0 0 0 0 1028.2 1028.2 0.0
21/01:00am 4.6 3.1 2.8 88 0.8 CALM 0 0 0 0 1028.6 1028.6 0.0
21/12:30am 5.2 3.3 3.1 86 0.9 SSE 2 6 1 3 1028.6 1028.6 0.0
21/12:00am 5.5 4.1 3.5 87 0.9 CALM 0 0 0 0 1028.8 1028.8 0.0
 
Date/Time
EST
Tmp

°C
App
Tmp
°C
Dew
Point
°C
Rel
Hum
%
Delta-T

°C
Wind Press
QNH
hPa
Press
MSL
hPa
Rain
since
9 am
mm
Dir
 
Spd
km/h
Gust
km/h
Spd
kts
Gust
kts
20/11:30pm 5.3 3.8 3.2 86 0.9 CALM 0 0 0 0 1028.7 1028.7 0.0
20/11:00pm 5.9 4.4 3.1 82 1.2 CALM 0 0 0 0 1028.7 1028.7 0.0
20/10:30pm 6.5 5.0 3.1 79 1.5 CALM 0 0 0 0 1028.7 1028.7 0.0
20/10:00pm 8.6 5.7 4.8 77 1.7 E 9 11 5 6 1028.4 1028.3 0.0
20/09:30pm 8.4 6.6 3.7 72 2.1 NE 2 6 1 3 1028.1 1028.1 0.0
20/09:00pm 9.4 5.7 4.2 70 2.4 ENE 13 17 7 9 1027.7 1027.7 0.0
20/08:30pm 9.9 6.5 3.9 66 2.7 ENE 11 17 6 9 1027.3 1027.3 0.0
20/08:00pm 10.5 7.1 3.8 63 3.0 E 11 17 6 9 1026.9 1026.8 0.0
20/07:30pm 11.4 8.4 1.9 52 4.2 E 7 9 4 5 1026.4 1026.4 0.0
20/07:00pm 11.9 8.4 1.5 49 4.5 ENE 9 13 5 7 1025.7 1025.7 0.0
20/06:30pm 12.4 9.3 1.1 46 4.9 SSW 7 11 4 6 1025.0 1024.9 0.0
20/06:00pm 14.0 10.4 0.6 40 5.8 S 9 11 5 6 1024.3 1024.3 0.0
20/05:30pm 15.1 11.2 0.9 38 6.3 S 11 17 6 9 1023.8 1023.7 0.0
20/05:00pm 15.3 11.0 1.1 38 6.3 SSW 13 19 7 10 1023.4 1023.3 0.0
20/04:30pm 16.6 12.6 0.7 34 7.2 SSW 11 19 6 10 1023.1 1023.0 0.0

Latest Capital City Observations: Canberra | Sydney | Melbourne | Brisbane | Adelaide | Perth | Hobart | Darwin

Other Formats:

Comma delimited format used in spreadsheet applications
http://www.bom.gov.au/fwo/IDN60903/IDN60903.94925.axf

JavaScript Object Notation format (JSON) in row-major order
http://www.bom.gov.au/fwo/IDN60903/IDN60903.94925.json